DLH7XP EDDF-LIRF
Flight info
| Callsign | DLH7XP |
|---|---|
| Flight time | N/A |
| Altitude | 39000 |
| Route | ANEKI2L/18 ANEKI Y163 NATOR DCT TRA DCT RIPUS DCT GERSA DCT SOSON DCT ODINA DCT EKPAL DCT TINKU DCT XIBIL |
| Aircraft | A320/M-SDE3FGHIRWY/LB1 |
Departure
| Time | 2026-05-07 13:26 |
|---|---|
| Airport | Frankfurt Main Airport (EDDF) |
Arrival
| Time | N/A |
|---|---|
| Airport | Rome–Fiumicino Leonardo da Vinci International Airport (LIRF) |
| Time | Latitude | Longitude | Altitude | Speed | Heading |
|---|---|---|---|---|---|
| 2026-05-07 12:44 | 50.04466 | 8.56485 | 356 ft | 0 kts | 159° |
| 2026-05-07 13:05 | 50.04472 | 8.56481 | 364 ft | 4 kts | 159° |
| 2026-05-07 13:06 | 50.04497 | 8.56467 | 362 ft | 4 kts | 153° |
| 2026-05-07 13:06 | 50.04518 | 8.56443 | 361 ft | 4 kts | 118° |
| 2026-05-07 13:06 | 50.04522 | 8.56409 | 358 ft | 1 kts | 70° |
| 2026-05-07 13:06 | 50.04520 | 8.56402 | 358 ft | 0 kts | 70° |
| 2026-05-07 13:09 | 50.04521 | 8.56403 | 356 ft | 2 kts | 69° |
| 2026-05-07 13:09 | 50.04537 | 8.56429 | 361 ft | 8 kts | 38° |
| 2026-05-07 13:10 | 50.04581 | 8.56462 | 362 ft | 0 kts | 23° |
| 2026-05-07 13:12 | 50.04581 | 8.56463 | 362 ft | 1 kts | 23° |
| 2026-05-07 13:13 | 50.04618 | 8.56474 | 359 ft | 6 kts | 356° |
| 2026-05-07 13:13 | 50.04648 | 8.56448 | 361 ft | 4 kts | 316° |
| 2026-05-07 13:13 | 50.04655 | 8.56433 | 359 ft | 0 kts | 301° |
| 2026-05-07 13:15 | 50.04657 | 8.56420 | 358 ft | 5 kts | 283° |
| 2026-05-07 13:15 | 50.04652 | 8.56377 | 360 ft | 3 kts | 255° |
| 2026-05-07 13:15 | 50.04646 | 8.56350 | 358 ft | 2 kts | 249° |
| 2026-05-07 13:15 | 50.04631 | 8.56291 | 356 ft | 16 kts | 249° |
| 2026-05-07 13:16 | 50.04583 | 8.56092 | 362 ft | 21 kts | 249° |
| 2026-05-07 13:16 | 50.04532 | 8.55958 | 358 ft | 10 kts | 209° |
| 2026-05-07 13:16 | 50.04462 | 8.55935 | 356 ft | 10 kts | 188° |
| 2026-05-07 13:16 | 50.04411 | 8.55985 | 359 ft | 9 kts | 121° |
| 2026-05-07 13:17 | 50.04373 | 8.56047 | 359 ft | 7 kts | 155° |
| 2026-05-07 13:17 | 50.04328 | 8.56070 | 356 ft | 6 kts | 165° |
| 2026-05-07 13:17 | 50.04276 | 8.56062 | 354 ft | 12 kts | 208° |
| 2026-05-07 13:17 | 50.04225 | 8.55931 | 360 ft | 16 kts | 256° |
| 2026-05-07 13:18 | 50.04194 | 8.55755 | 359 ft | 18 kts | 248° |
| 2026-05-07 13:18 | 50.04148 | 8.55565 | 359 ft | 20 kts | 251° |
| 2026-05-07 13:18 | 50.04101 | 8.55362 | 355 ft | 20 kts | 249° |
| 2026-05-07 13:18 | 50.04051 | 8.55158 | 360 ft | 20 kts | 248° |
| 2026-05-07 13:19 | 50.03997 | 8.54948 | 356 ft | 21 kts | 254° |
| 2026-05-07 13:19 | 50.03947 | 8.54717 | 355 ft | 24 kts | 249° |
| 2026-05-07 13:19 | 50.03889 | 8.54472 | 350 ft | 24 kts | 250° |
| 2026-05-07 13:19 | 50.03820 | 8.54273 | 345 ft | 19 kts | 234° |
| 2026-05-07 13:20 | 50.03770 | 8.54103 | 347 ft | 18 kts | 251° |
| 2026-05-07 13:20 | 50.03726 | 8.53914 | 345 ft | 19 kts | 249° |
| 2026-05-07 13:20 | 50.03678 | 8.53713 | 349 ft | 21 kts | 249° |
| 2026-05-07 13:20 | 50.03626 | 8.53495 | 340 ft | 22 kts | 250° |
| 2026-05-07 13:21 | 50.03567 | 8.53266 | 338 ft | 21 kts | 251° |
| 2026-05-07 13:21 | 50.03539 | 8.53134 | 337 ft | 7 kts | 246° |
| 2026-05-07 13:21 | 50.03519 | 8.53060 | 334 ft | 8 kts | 247° |
| 2026-05-07 13:21 | 50.03496 | 8.52973 | 335 ft | 9 kts | 248° |
| 2026-05-07 13:22 | 50.03470 | 8.52868 | 332 ft | 11 kts | 249° |
| 2026-05-07 13:22 | 50.03453 | 8.52802 | 335 ft | 4 kts | 247° |
| 2026-05-07 13:22 | 50.03443 | 8.52768 | 334 ft | 3 kts | 246° |
| 2026-05-07 13:22 | 50.03435 | 8.52740 | 336 ft | 3 kts | 247° |
| 2026-05-07 13:23 | 50.03432 | 8.52726 | 331 ft | 0 kts | 248° |
| 2026-05-07 13:23 | 50.03432 | 8.52725 | 331 ft | 1 kts | 248° |
| 2026-05-07 13:23 | 50.03416 | 8.52667 | 332 ft | 9 kts | 247° |
| 2026-05-07 13:23 | 50.03366 | 8.52597 | 334 ft | 10 kts | 201° |
| 2026-05-07 13:24 | 50.03337 | 8.52592 | 335 ft | 0 kts | 182° |
| 2026-05-07 13:25 | 50.03255 | 8.52593 | 333 ft | 39 kts | 179° |
| 2026-05-07 13:25 | 50.02739 | 8.52601 | 335 ft | 106 kts | 179° |
| 2026-05-07 13:26 | 50.01817 | 8.52608 | 331 ft | 156 kts | 180° |
| 2026-05-07 13:26 | 50.00620 | 8.52618 | 598 ft | 178 kts | 181° |
| 2026-05-07 13:26 | 49.99380 | 8.52668 | 1368 ft | 178 kts | 179° |
| 2026-05-07 13:26 | 49.98102 | 8.52755 | 1919 ft | 192 kts | 178° |
| 2026-05-07 13:27 | 49.96711 | 8.52855 | 2178 ft | 214 kts | 178° |
| 2026-05-07 13:27 | 49.95156 | 8.52967 | 2603 ft | 231 kts | 178° |
| 2026-05-07 13:27 | 49.93536 | 8.53083 | 3465 ft | 234 kts | 178° |
| 2026-05-07 13:27 | 49.91902 | 8.53198 | 4351 ft | 236 kts | 179° |
| 2026-05-07 13:28 | 49.90246 | 8.53313 | 5206 ft | 239 kts | 179° |
| 2026-05-07 13:28 | 49.88574 | 8.53431 | 6040 ft | 242 kts | 179° |
| 2026-05-07 13:28 | 49.86880 | 8.53553 | 6816 ft | 245 kts | 179° |
| 2026-05-07 13:28 | 49.85166 | 8.53676 | 7568 ft | 248 kts | 179° |
| 2026-05-07 13:29 | 49.83430 | 8.53798 | 8339 ft | 251 kts | 179° |
| 2026-05-07 13:29 | 49.81675 | 8.53917 | 9119 ft | 254 kts | 179° |
| 2026-05-07 13:29 | 49.79898 | 8.54034 | 9918 ft | 258 kts | 179° |
| 2026-05-07 13:29 | 49.78095 | 8.54127 | 10634 ft | 260 kts | 184° |
| 2026-05-07 13:30 | 49.76228 | 8.53910 | 10995 ft | 280 kts | 186° |
| 2026-05-07 13:30 | 49.74207 | 8.53637 | 11216 ft | 304 kts | 186° |
| 2026-05-07 13:30 | 49.72021 | 8.53338 | 11430 ft | 327 kts | 186° |
| 2026-05-07 13:30 | 49.69702 | 8.53023 | 11591 ft | 350 kts | 186° |
| 2026-05-07 13:31 | 49.67231 | 8.52689 | 12016 ft | 362 kts | 186° |
| 2026-05-07 13:31 | 49.64707 | 8.52354 | 12654 ft | 367 kts | 186° |
| 2026-05-07 13:31 | 49.62144 | 8.52016 | 13338 ft | 371 kts | 186° |
| 2026-05-07 13:31 | 49.59561 | 8.51680 | 14005 ft | 375 kts | 186° |
| 2026-05-07 13:32 | 49.56947 | 8.51338 | 14631 ft | 378 kts | 186° |
| 2026-05-07 13:32 | 49.54317 | 8.50996 | 15256 ft | 381 kts | 186° |
| 2026-05-07 13:32 | 49.51667 | 8.50652 | 15877 ft | 383 kts | 186° |
| 2026-05-07 13:32 | 49.49003 | 8.50301 | 16489 ft | 386 kts | 186° |
| 2026-05-07 13:33 | 49.46320 | 8.49949 | 17097 ft | 388 kts | 186° |
| 2026-05-07 13:33 | 49.43616 | 8.49594 | 17695 ft | 391 kts | 186° |
| 2026-05-07 13:33 | 49.40895 | 8.49241 | 18277 ft | 394 kts | 187° |
| 2026-05-07 13:33 | 49.38150 | 8.48885 | 18781 ft | 397 kts | 187° |
| 2026-05-07 13:34 | 49.35392 | 8.48525 | 19282 ft | 399 kts | 187° |
| 2026-05-07 13:34 | 49.29827 | 8.47756 | 20275 ft | 404 kts | 187° |
| 2026-05-07 13:34 | 49.27024 | 8.47351 | 20750 ft | 406 kts | 187° |
| 2026-05-07 13:35 | 49.24202 | 8.46942 | 21220 ft | 409 kts | 187° |
| 2026-05-07 13:35 | 49.21400 | 8.46540 | 21684 ft | 411 kts | 187° |
| 2026-05-07 13:35 | 49.18507 | 8.46130 | 22147 ft | 413 kts | 187° |
| 2026-05-07 13:35 | 49.15673 | 8.45731 | 22598 ft | 416 kts | 187° |
| 2026-05-07 13:36 | 49.12785 | 8.45328 | 23050 ft | 418 kts | 187° |
| 2026-05-07 13:36 | 49.09884 | 8.44919 | 23487 ft | 420 kts | 188° |
| 2026-05-07 13:36 | 49.06921 | 8.44500 | 23874 ft | 423 kts | 188° |
| 2026-05-07 13:36 | 49.04028 | 8.44091 | 24235 ft | 425 kts | 188° |
| 2026-05-07 13:37 | 49.01078 | 8.43679 | 24591 ft | 427 kts | 187° |
| 2026-05-07 13:37 | 48.98114 | 8.43268 | 24940 ft | 429 kts | 187° |
| 2026-05-07 13:37 | 48.95137 | 8.42853 | 25298 ft | 431 kts | 187° |
| 2026-05-07 13:37 | 48.92147 | 8.42434 | 25652 ft | 433 kts | 187° |
| 2026-05-07 13:38 | 48.89142 | 8.42015 | 26002 ft | 434 kts | 187° |
| 2026-05-07 13:38 | 48.86128 | 8.41601 | 26349 ft | 436 kts | 187° |
| 2026-05-07 13:38 | 48.83097 | 8.41187 | 26681 ft | 438 kts | 187° |
| 2026-05-07 13:38 | 48.80053 | 8.40768 | 27003 ft | 440 kts | 187° |
| 2026-05-07 13:39 | 48.76997 | 8.40343 | 27317 ft | 442 kts | 187° |
| 2026-05-07 13:39 | 48.73929 | 8.39912 | 27631 ft | 444 kts | 187° |
| 2026-05-07 13:39 | 48.70845 | 8.39479 | 27934 ft | 445 kts | 187° |
| 2026-05-07 13:39 | 48.67751 | 8.39046 | 28238 ft | 447 kts | 187° |
| 2026-05-07 13:40 | 48.64644 | 8.38617 | 28541 ft | 449 kts | 187° |
| 2026-05-07 13:40 | 48.61528 | 8.38190 | 28835 ft | 451 kts | 187° |
| 2026-05-07 13:40 | 48.58398 | 8.37762 | 29149 ft | 452 kts | 187° |
| 2026-05-07 13:40 | 48.55269 | 8.37334 | 29560 ft | 451 kts | 187° |
| 2026-05-07 13:41 | 48.52151 | 8.36911 | 29992 ft | 449 kts | 187° |
| 2026-05-07 13:41 | 48.49044 | 8.36488 | 30351 ft | 448 kts | 187° |
| 2026-05-07 13:41 | 48.45939 | 8.36064 | 30667 ft | 448 kts | 187° |
| 2026-05-07 13:41 | 48.42836 | 8.35639 | 30980 ft | 448 kts | 187° |
| 2026-05-07 13:42 | 48.39734 | 8.35213 | 31285 ft | 448 kts | 187° |
| 2026-05-07 13:42 | 48.36631 | 8.34790 | 31588 ft | 448 kts | 187° |
| 2026-05-07 13:42 | 48.33530 | 8.34370 | 31903 ft | 448 kts | 187° |
| 2026-05-07 13:42 | 48.30426 | 8.33951 | 32189 ft | 448 kts | 187° |
| 2026-05-07 13:43 | 48.27322 | 8.33529 | 32486 ft | 448 kts | 187° |
| 2026-05-07 13:43 | 48.24220 | 8.33105 | 32789 ft | 448 kts | 187° |
| 2026-05-07 13:43 | 48.21117 | 8.32685 | 33084 ft | 448 kts | 187° |
| 2026-05-07 13:43 | 48.18007 | 8.32352 | 33379 ft | 449 kts | 182° |
| 2026-05-07 13:44 | 48.14881 | 8.32631 | 33659 ft | 452 kts | 174° |
| 2026-05-07 13:44 | 48.11774 | 8.33380 | 33960 ft | 453 kts | 173° |
| 2026-05-07 13:44 | 48.08663 | 8.34143 | 34219 ft | 453 kts | 173° |
| 2026-05-07 13:44 | 48.05556 | 8.34903 | 34468 ft | 453 kts | 173° |
| 2026-05-07 13:45 | 48.02487 | 8.35650 | 34716 ft | 452 kts | 173° |
| 2026-05-07 13:45 | 47.99381 | 8.36401 | 34943 ft | 453 kts | 173° |
| 2026-05-07 13:45 | 47.96271 | 8.37149 | 35029 ft | 452 kts | 174° |
| 2026-05-07 13:46 | 47.90061 | 8.38636 | 35039 ft | 452 kts | 174° |
| 2026-05-07 13:46 | 47.84087 | 8.40069 | 35135 ft | 453 kts | 174° |
| 2026-05-07 13:46 | 47.80978 | 8.40817 | 35387 ft | 452 kts | 174° |
| 2026-05-07 13:47 | 47.77875 | 8.41564 | 35636 ft | 451 kts | 174° |
| 2026-05-07 13:47 | 47.74776 | 8.42310 | 35879 ft | 451 kts | 174° |
| 2026-05-07 13:47 | 47.71682 | 8.43053 | 36100 ft | 451 kts | 174° |
| 2026-05-07 13:47 | 47.68590 | 8.43787 | 36319 ft | 450 kts | 174° |
| 2026-05-07 13:48 | 47.65490 | 8.44402 | 36536 ft | 449 kts | 176° |
| 2026-05-07 13:48 | 47.62388 | 8.44884 | 36749 ft | 448 kts | 178° |
| 2026-05-07 13:48 | 47.59285 | 8.45286 | 36951 ft | 447 kts | 178° |
| 2026-05-07 13:49 | 47.53076 | 8.46047 | 37056 ft | 447 kts | 178° |
| 2026-05-07 13:49 | 47.46876 | 8.46905 | 37055 ft | 447 kts | 178° |
| 2026-05-07 13:50 | 47.40683 | 8.47839 | 37058 ft | 447 kts | 177° |
| 2026-05-07 13:50 | 47.34492 | 8.48773 | 37056 ft | 447 kts | 178° |
| 2026-05-07 13:51 | 47.28302 | 8.49679 | 37032 ft | 447 kts | 178° |
| 2026-05-07 13:51 | 47.22116 | 8.50577 | 37032 ft | 447 kts | 178° |
| 2026-05-07 13:52 | 47.15926 | 8.51472 | 37026 ft | 447 kts | 178° |
| 2026-05-07 13:52 | 47.09737 | 8.52370 | 37034 ft | 447 kts | 178° |
| 2026-05-07 13:53 | 47.03548 | 8.53274 | 37019 ft | 447 kts | 178° |
| 2026-05-07 13:53 | 46.97364 | 8.54165 | 37027 ft | 447 kts | 178° |
| 2026-05-07 13:54 | 46.91177 | 8.55056 | 37030 ft | 447 kts | 178° |
| 2026-05-07 13:54 | 46.84985 | 8.55941 | 37009 ft | 446 kts | 178° |
| 2026-05-07 13:55 | 46.78846 | 8.56821 | 37022 ft | 446 kts | 178° |
| 2026-05-07 13:55 | 46.72663 | 8.57705 | 37020 ft | 446 kts | 178° |
| 2026-05-07 13:56 | 46.66500 | 8.58589 | 37008 ft | 444 kts | 179° |
| 2026-05-07 13:56 | 46.60342 | 8.59465 | 36996 ft | 445 kts | 179° |
| 2026-05-07 13:57 | 46.54182 | 8.60337 | 36990 ft | 445 kts | 179° |
| 2026-05-07 13:57 | 46.48019 | 8.61212 | 36986 ft | 445 kts | 179° |
| 2026-05-07 13:58 | 46.41862 | 8.62079 | 36995 ft | 445 kts | 179° |
| 2026-05-07 13:58 | 46.35704 | 8.62953 | 36982 ft | 444 kts | 179° |
| 2026-05-07 13:59 | 46.29552 | 8.63822 | 36980 ft | 444 kts | 179° |
| 2026-05-07 13:59 | 46.23405 | 8.64684 | 36978 ft | 443 kts | 179° |
| 2026-05-07 14:00 | 46.17299 | 8.65536 | 36977 ft | 444 kts | 179° |
| 2026-05-07 14:00 | 46.11186 | 8.66981 | 36972 ft | 453 kts | 166° |
| 2026-05-07 14:01 | 46.05520 | 8.71172 | 36997 ft | 464 kts | 151° |
| 2026-05-07 14:01 | 46.00145 | 8.76337 | 37000 ft | 464 kts | 151° |
| 2026-05-07 14:02 | 45.94922 | 8.81312 | 37000 ft | 464 kts | 152° |
| 2026-05-07 14:02 | 45.89531 | 8.86416 | 36998 ft | 464 kts | 152° |
| 2026-05-07 14:03 | 45.84137 | 8.91524 | 36996 ft | 464 kts | 152° |
| 2026-05-07 14:03 | 45.78745 | 8.96627 | 36991 ft | 465 kts | 152° |
| 2026-05-07 14:04 | 45.74257 | 9.00854 | 36980 ft | 465 kts | 152° |
| 2026-05-07 14:04 | 45.68853 | 9.05932 | 36974 ft | 465 kts | 152° |
| 2026-05-07 14:05 | 45.63449 | 9.10993 | 36981 ft | 465 kts | 152° |
| 2026-05-07 14:05 | 45.58043 | 9.16051 | 36968 ft | 464 kts | 152° |
| 2026-05-07 14:06 | 45.52640 | 9.21108 | 36970 ft | 464 kts | 152° |
| 2026-05-07 14:06 | 45.47239 | 9.26150 | 36970 ft | 464 kts | 152° |
| 2026-05-07 14:07 | 45.41836 | 9.31161 | 36980 ft | 463 kts | 152° |
| 2026-05-07 14:07 | 45.36435 | 9.36167 | 36971 ft | 463 kts | 152° |
| 2026-05-07 14:08 | 45.31035 | 9.41172 | 36976 ft | 463 kts | 153° |
| 2026-05-07 14:08 | 45.25635 | 9.46168 | 36974 ft | 463 kts | 153° |
| 2026-05-07 14:09 | 45.20235 | 9.51143 | 36973 ft | 463 kts | 153° |
| 2026-05-07 14:09 | 45.14830 | 9.56115 | 36976 ft | 463 kts | 153° |
| 2026-05-07 14:10 | 45.09455 | 9.61036 | 36975 ft | 463 kts | 153° |
| 2026-05-07 14:10 | 45.04044 | 9.65988 | 36973 ft | 463 kts | 153° |
| 2026-05-07 14:11 | 44.98634 | 9.70933 | 36973 ft | 463 kts | 153° |
| 2026-05-07 14:11 | 44.93222 | 9.75861 | 36972 ft | 463 kts | 153° |
| 2026-05-07 14:12 | 44.87810 | 9.80776 | 36974 ft | 462 kts | 153° |
| 2026-05-07 14:12 | 44.82400 | 9.85677 | 36980 ft | 462 kts | 153° |
| 2026-05-07 14:13 | 44.76988 | 9.90573 | 36967 ft | 462 kts | 153° |
| 2026-05-07 14:13 | 44.71578 | 9.95459 | 36977 ft | 462 kts | 153° |
| 2026-05-07 14:14 | 44.66170 | 10.00340 | 36976 ft | 462 kts | 153° |
| 2026-05-07 14:14 | 44.60763 | 10.05195 | 36977 ft | 461 kts | 153° |
| 2026-05-07 14:15 | 44.55352 | 10.10042 | 36979 ft | 461 kts | 154° |
| 2026-05-07 14:15 | 44.49946 | 10.14872 | 36981 ft | 460 kts | 155° |
| 2026-05-07 14:16 | 44.44253 | 10.18470 | 36984 ft | 450 kts | 166° |
| 2026-05-07 14:16 | 44.38398 | 10.21557 | 36991 ft | 449 kts | 165° |
| 2026-05-07 14:17 | 44.32551 | 10.24652 | 36997 ft | 449 kts | 166° |
| 2026-05-07 14:17 | 44.26721 | 10.27735 | 37001 ft | 448 kts | 165° |
| 2026-05-07 14:18 | 44.20887 | 10.30802 | 37007 ft | 448 kts | 166° |
| 2026-05-07 14:18 | 44.15061 | 10.33856 | 37006 ft | 447 kts | 166° |
| 2026-05-07 14:19 | 44.09238 | 10.36915 | 37008 ft | 447 kts | 166° |
| 2026-05-07 14:19 | 44.03427 | 10.39961 | 37011 ft | 446 kts | 166° |
| 2026-05-07 14:20 | 43.97619 | 10.42990 | 37011 ft | 446 kts | 166° |
| 2026-05-07 14:20 | 43.91809 | 10.46015 | 37018 ft | 446 kts | 166° |
| 2026-05-07 14:21 | 43.86004 | 10.49035 | 37021 ft | 445 kts | 166° |
| 2026-05-07 14:21 | 43.80209 | 10.52047 | 37021 ft | 445 kts | 166° |
| 2026-05-07 14:22 | 43.74452 | 10.55009 | 37023 ft | 444 kts | 167° |
| 2026-05-07 14:22 | 43.68621 | 10.57754 | 37028 ft | 442 kts | 168° |
| 2026-05-07 14:23 | 43.62780 | 10.60383 | 37019 ft | 442 kts | 169° |
| 2026-05-07 14:23 | 43.56937 | 10.63037 | 37025 ft | 442 kts | 168° |
| 2026-05-07 14:24 | 43.51102 | 10.65741 | 37009 ft | 442 kts | 168° |
| 2026-05-07 14:24 | 43.45271 | 10.68455 | 37008 ft | 442 kts | 168° |
| 2026-05-07 14:25 | 43.39441 | 10.71151 | 37005 ft | 442 kts | 168° |
| 2026-05-07 14:25 | 43.33606 | 10.73841 | 37004 ft | 442 kts | 169° |
| 2026-05-07 14:26 | 43.27768 | 10.76518 | 37003 ft | 443 kts | 169° |
| 2026-05-07 14:26 | 43.21924 | 10.79199 | 36760 ft | 443 kts | 169° |
| 2026-05-07 14:26 | 43.18998 | 10.80541 | 36493 ft | 444 kts | 169° |
| 2026-05-07 14:27 | 43.16070 | 10.81884 | 36232 ft | 444 kts | 169° |